Time;durP1;ratioP1;P1;durP2;ratioP2;P2;SDS_P1;SDS_P2;PMS_P1;PMS_P2;Temp;Humidity;BMP_temperature;BMP_pressure;BME280_temperature;BME280_humidity;BME280_pressure;Samples;Min_cycle;Max_cycle;Signal;HPM_P1;HPM_P2
2023/08/09 00:02:05;;;;;;;9.32;5.07;;;14.70;99.90;;;;;;5028154;28;20033;-68
2023/08/09 00:04:31;;;;;;;11.80;4.97;;;14.60;99.90;;;;;;5026851;28;20045;-75
2023/08/09 00:06:56;;;;;;;9.60;4.97;;;14.60;99.90;;;;;;5010020;28;20125;-70
2023/08/09 00:09:22;;;;;;;9.50;5.68;;;14.60;99.90;;;;;;5009670;28;20033;-71
2023/08/09 00:11:47;;;;;;;10.93;4.78;;;14.70;99.90;;;;;;5026962;28;20029;-72
2023/08/09 00:14:13;;;;;;;9.82;5.38;;;14.60;99.90;;;;;;5027825;28;20490;-70
2023/08/09 00:16:39;;;;;;;11.35;5.43;;;14.60;99.90;;;;;;5009027;28;20095;-69
2023/08/09 00:19:05;;;;;;;7.93;4.53;;;14.50;99.90;;;;;;5027336;28;20032;-70
2023/08/09 00:21:31;;;;;;;9.40;5.32;;;14.40;99.90;;;;;;5027648;28;20037;-70
2023/08/09 00:23:58;;;;;;;10.65;5.30;;;14.40;99.90;;;;;;5008431;28;20034;-73
2023/08/09 00:26:25;;;;;;;8.70;4.63;;;14.30;99.90;;;;;;5008869;28;20106;-70
2023/08/09 00:28:51;;;;;;;8.82;4.75;;;14.30;99.90;;;;;;5025802;28;20098;-71
2023/08/09 00:31:17;;;;;;;9.10;4.97;;;14.20;99.90;;;;;;5009629;28;20052;-71
2023/08/09 00:33:43;;;;;;;10.50;4.85;;;14.20;99.90;;;;;;5007000;28;20041;-69
2023/08/09 00:36:09;;;;;;;8.23;4.18;;;14.10;99.90;;;;;;5026567;28;20044;-71
2023/08/09 00:38:36;;;;;;;9.35;4.00;;;14.10;99.90;;;;;;5007318;28;20385;-72
2023/08/09 00:41:01;;;;;;;9.95;4.70;;;14.10;99.90;;;;;;5027289;28;20037;-70
2023/08/09 00:43:27;;;;;;;8.50;4.30;;;14.00;99.90;;;;;;5009840;28;20041;-71
2023/08/09 00:45:53;;;;;;;11.93;4.50;;;14.00;99.90;;;;;;5008038;28;20103;-71
2023/08/09 00:48:19;;;;;;;12.13;3.80;;;14.00;99.90;;;;;;5027303;28;20037;-71
2023/08/09 00:50:44;;;;;;;17.75;4.85;;;13.90;99.90;;;;;;5008589;28;20099;-71
2023/08/09 00:53:10;;;;;;;7.10;3.10;;;14.00;99.90;;;;;;5027134;28;20025;-71
2023/08/09 00:55:36;;;;;;;10.52;2.83;;;13.90;99.90;;;;;;5025887;28;20064;-71
2023/08/09 00:58:02;;;;;;;10.48;3.10;;;13.90;99.90;;;;;;5024154;28;20120;-72
2023/08/09 01:00:27;;;;;;;5.63;2.63;;;13.90;99.90;;;;;;5027186;28;20034;-71
2023/08/09 01:02:53;;;;;;;6.63;2.95;;;13.90;99.90;;;;;;5008508;28;20099;-72
2023/08/09 01:05:21;;;;;;;10.23;2.97;;;13.90;99.90;;;;;;5026906;28;20061;-70
2023/08/09 01:07:55;;;;;;;3.75;2.45;;;13.80;99.90;;;;;;5008074;28;20063;-70
2023/08/09 01:10:34;;;;;;;10.60;2.40;;;13.80;99.90;;;;;;5009365;28;20021;-71
2023/08/09 01:13:03;;;;;;;12.95;3.67;;;13.80;99.90;;;;;;5026862;28;20511;-71
2023/08/09 01:15:31;;;;;;;11.00;2.38;;;13.70;99.90;;;;;;5009235;28;20029;-71
2023/08/09 01:17:58;;;;;;;6.63;2.38;;;13.70;99.90;;;;;;5008213;28;20660;-72
2023/08/09 01:20:25;;;;;;;13.75;2.70;;;13.70;99.90;;;;;;5026455;28;20033;-70
2023/08/09 01:23:03;;;;;;;11.48;2.83;;;13.60;99.90;;;;;;5025927;28;20033;-70
2023/08/09 01:25:30;;;;;;;11.27;2.47;;;13.60;99.90;;;;;;5009098;28;20032;-71
2023/08/09 01:27:58;;;;;;;8.82;2.70;;;13.60;99.90;;;;;;5025734;28;20095;-70
2023/08/09 01:30:24;;;;;;;16.52;3.40;;;13.60;99.90;;;;;;5026941;28;20103;-71
2023/08/09 01:32:50;;;;;;;7.53;3.15;;;13.60;99.90;;;;;;5025740;28;20041;-71
2023/08/09 01:35:16;;;;;;;8.88;3.35;;;13.60;99.90;;;;;;5026616;28;20097;-71
2023/08/09 01:38:21;;;;;;;5.97;3.15;;;13.50;99.90;;;;;;5025340;28;20044;-71
2023/08/09 01:40:48;;;;;;;7.50;3.35;;;13.50;99.90;;;;;;5004676;28;20044;-73
2023/08/09 01:43:15;;;;;;;17.10;3.65;;;13.50;99.90;;;;;;5026727;28;20041;-71
2023/08/09 01:45:40;;;;;;;13.40;3.88;;;13.60;99.90;;;;;;5010091;28;20063;-69
2023/08/09 01:48:07;;;;;;;15.40;4.05;;;13.60;99.90;;;;;;5029925;28;20041;-70
2023/08/09 01:50:33;;;;;;;15.10;3.67;;;13.60;99.90;;;;;;5011626;28;20030;-70
2023/08/09 01:52:59;;;;;;;13.90;3.00;;;13.60;99.90;;;;;;5030373;28;20048;-70
2023/08/09 01:55:26;;;;;;;14.00;3.50;;;13.60;99.90;;;;;;5012375;28;20042;-71
2023/08/09 01:57:52;;;;;;;9.23;3.80;;;13.50;99.90;;;;;;5024368;28;20034;-69
2023/08/09 02:00:19;;;;;;;18.90;4.20;;;13.50;99.90;;;;;;5011039;28;20026;-70
2023/08/09 02:02:46;;;;;;;15.25;3.70;;;13.50;99.90;;;;;;5022945;28;20037;-70
2023/08/09 02:05:12;;;;;;;9.82;3.67;;;13.50;99.90;;;;;;5030680;28;20032;-69
2023/08/09 02:07:39;;;;;;;15.13;3.42;;;13.50;99.90;;;;;;5029239;28;20116;-71
2023/08/09 02:10:04;;;;;;;6.88;3.30;;;13.50;99.90;;;;;;5012573;28;20101;-71
2023/08/09 02:12:30;;;;;;;11.57;3.33;;;13.40;99.90;;;;;;5011766;28;20120;-70
2023/08/09 02:14:56;;;;;;;12.35;3.25;;;13.50;99.90;;;;;;5011318;28;20037;-72
2023/08/09 02:17:22;;;;;;;8.15;3.13;;;13.40;99.90;;;;;;5029827;28;20053;-72
2023/08/09 02:19:48;;;;;;;18.90;4.55;;;13.40;99.90;;;;;;5028640;28;20037;-70
2023/08/09 02:22:19;;;;;;;15.23;3.22;;;13.40;99.90;;;;;;5028588;28;20037;-70
2023/08/09 02:24:45;;;;;;;11.88;3.47;;;13.40;99.90;;;;;;5027091;28;20037;-70
2023/08/09 02:27:13;;;;;;;12.18;2.90;;;13.40;99.90;;;;;;5029420;28;20734;-71
2023/08/09 02:29:39;;;;;;;10.52;3.38;;;13.40;99.90;;;;;;5028563;28;20542;-71
2023/08/09 02:32:05;;;;;;;14.07;4.30;;;13.50;99.90;;;;;;5011888;28;20037;-71
2023/08/09 02:34:31;;;;;;;6.45;2.78;;;13.50;99.90;;;;;;5029629;28;20516;-69
2023/08/09 02:36:57;;;;;;;18.27;3.50;;;13.50;99.90;;;;;;5028487;28;20049;-72
2023/08/09 02:39:23;;;;;;;8.40;3.33;;;13.40;99.90;;;;;;5029539;28;20112;-72
2023/08/09 02:41:49;;;;;;;6.13;3.08;;;13.40;99.90;;;;;;5010736;28;20525;-70
2023/08/09 02:44:15;;;;;;;10.10;3.15;;;13.40;99.90;;;;;;5011590;28;20116;-71
2023/08/09 02:46:40;;;;;;;13.07;3.83;;;13.40;99.90;;;;;;5028511;28;20040;-71
2023/08/09 02:49:06;;;;;;;6.65;3.47;;;13.40;99.90;;;;;;5029055;28;20132;-71
2023/08/09 02:51:32;;;;;;;11.55;3.30;;;13.40;99.90;;;;;;5026438;28;20108;-75
2023/08/09 02:54:05;;;;;;;13.75;3.92;;;13.40;99.90;;;;;;5011197;28;20040;-71
2023/08/09 02:56:32;;;;;;;9.05;3.17;;;13.40;99.90;;;;;;5004313;28;20038;-71
2023/08/09 02:58:59;;;;;;;8.65;3.47;;;13.30;99.90;;;;;;5009191;28;20409;-70
2023/08/09 03:01:25;;;;;;;24.83;4.07;;;13.30;99.90;;;;;;5029204;28;20037;-70
2023/08/09 03:03:52;;;;;;;10.70;3.25;;;13.30;99.90;;;;;;5009954;28;20049;-71
2023/08/09 03:06:18;;;;;;;10.65;2.85;;;13.30;99.90;;;;;;5011488;28;20036;-70
2023/08/09 03:08:48;;;;;;;8.23;2.83;;;13.30;99.90;;;;;;5009822;28;20037;-70
2023/08/09 03:11:13;;;;;;;9.73;3.22;;;13.30;99.90;;;;;;5029062;28;20033;-71
2023/08/09 03:13:40;;;;;;;10.48;3.10;;;13.30;99.90;;;;;;5028113;28;20042;-70
2023/08/09 03:16:05;;;;;;;14.63;3.28;;;13.20;99.90;;;;;;5028741;28;20044;-72
2023/08/09 03:18:32;;;;;;;11.77;3.35;;;13.20;99.90;;;;;;5029082;28;20041;-69
2023/08/09 03:20:57;;;;;;;9.48;3.10;;;13.20;99.90;;;;;;5010564;28;20385;-68
2023/08/09 03:23:23;;;;;;;8.73;3.15;;;13.20;99.90;;;;;;5025418;28;20037;-70
2023/08/09 03:25:48;;;;;;;9.32;3.53;;;13.10;99.90;;;;;;5009974;28;20087;-70
2023/08/09 03:28:14;;;;;;;14.68;3.60;;;13.10;99.90;;;;;;5010813;28;20552;-71
2023/08/09 03:30:40;;;;;;;8.25;3.08;;;13.10;99.90;;;;;;5009568;28;20037;-70
2023/08/09 03:33:05;;;;;;;9.73;2.95;;;13.10;99.90;;;;;;5010563;28;20080;-71
2023/08/09 03:35:31;;;;;;;7.80;3.42;;;13.10;99.90;;;;;;5028553;28;20405;-71
2023/08/09 03:37:58;;;;;;;10.10;3.40;;;13.10;99.90;;;;;;5027245;28;20497;-70
2023/08/09 03:40:23;;;;;;;6.88;3.05;;;13.10;99.90;;;;;;5020563;28;20053;-71
2023/08/09 03:42:49;;;;;;;12.02;3.90;;;13.00;99.90;;;;;;5009644;28;20025;-70
2023/08/09 03:45:14;;;;;;;9.15;3.88;;;13.10;99.90;;;;;;5010911;28;20083;-69
2023/08/09 03:47:40;;;;;;;10.57;4.35;;;13.10;99.90;;;;;;5027235;28;20069;-69
2023/08/09 03:50:07;;;;;;;8.38;3.75;;;13.10;99.90;;;;;;5028300;28;20041;-71
2023/08/09 03:52:33;;;;;;;9.32;3.88;;;13.00;99.90;;;;;;5027474;28;20040;-71
2023/08/09 03:54:59;;;;;;;21.05;4.28;;;13.00;99.90;;;;;;5010715;28;20048;-70
2023/08/09 03:57:24;;;;;;;12.07;4.28;;;13.00;99.90;;;;;;5026370;28;20417;-69
2023/08/09 03:59:50;;;;;;;12.23;4.30;;;13.00;99.90;;;;;;5026593;28;20085;-70
2023/08/09 04:02:17;;;;;;;12.27;3.80;;;13.00;99.90;;;;;;5010178;28;20059;-71
2023/08/09 04:04:43;;;;;;;13.57;3.90;;;13.00;99.90;;;;;;5009306;28;20045;-69
2023/08/09 04:07:09;;;;;;;13.38;3.53;;;13.00;99.90;;;;;;5009255;28;20038;-70
2023/08/09 04:09:35;;;;;;;17.02;4.00;;;13.00;99.90;;;;;;5008860;28;20042;-69
2023/08/09 04:12:03;;;;;;;14.23;3.95;;;13.00;99.90;;;;;;5010228;28;20124;-70
2023/08/09 04:14:29;;;;;;;8.90;3.72;;;13.00;99.90;;;;;;5009923;28;20033;-70
2023/08/09 04:16:55;;;;;;;14.82;3.80;;;13.00;99.90;;;;;;5027080;28;20033;-70
2023/08/09 04:19:20;;;;;;;8.25;3.67;;;13.00;99.90;;;;;;5009632;28;20397;-71
2023/08/09 04:21:46;;;;;;;11.48;4.40;;;13.00;99.90;;;;;;5009073;28;20041;-71
2023/08/09 04:24:12;;;;;;;13.55;4.00;;;13.00;99.90;;;;;;5024743;28;20512;-69
2023/08/09 04:26:38;;;;;;;14.02;4.40;;;13.00;99.90;;;;;;5009167;28;20132;-70
2023/08/09 04:29:03;;;;;;;11.55;4.47;;;13.00;99.90;;;;;;5027406;28;20171;-69
2023/08/09 04:31:29;;;;;;;20.30;6.28;;;13.00;99.90;;;;;;5027643;28;20209;-69
2023/08/09 04:33:55;;;;;;;17.20;4.95;;;13.10;99.90;;;;;;5008322;28;20048;-70
2023/08/09 04:36:21;;;;;;;13.68;4.40;;;13.10;99.90;;;;;;5009390;28;20049;-71
2023/08/09 04:38:46;;;;;;;14.90;4.95;;;13.10;99.90;;;;;;5025899;28;20052;-70
2023/08/09 04:41:12;;;;;;;18.98;4.55;;;13.10;99.90;;;;;;5009778;28;20032;-69
2023/08/09 04:43:42;;;;;;;14.85;4.35;;;13.20;99.90;;;;;;5008568;28;20081;-70
2023/08/09 04:46:10;;;;;;;18.23;5.05;;;13.20;99.90;;;;;;5009682;28;20036;-70
2023/08/09 04:48:37;;;;;;;18.25;5.20;;;13.20;99.90;;;;;;5007863;28;20022;-70
2023/08/09 04:51:03;;;;;;;12.32;4.10;;;13.20;99.90;;;;;;5009611;28;20026;-70
2023/08/09 04:53:29;;;;;;;14.10;4.40;;;13.20;99.90;;;;;;5005259;28;20056;-71
2023/08/09 04:55:55;;;;;;;20.17;5.65;;;13.20;99.90;;;;;;5022983;28;20049;-70
2023/08/09 04:58:20;;;;;;;11.02;4.35;;;13.30;99.90;;;;;;5004618;28;20063;-70
2023/08/09 05:00:46;;;;;;;8.95;4.22;;;13.30;99.90;;;;;;5026101;28;20072;-71
2023/08/09 05:03:11;;;;;;;13.43;4.90;;;13.40;99.90;;;;;;5026436;28;20041;-70
2023/08/09 05:05:37;;;;;;;15.70;4.82;;;13.40;99.90;;;;;;5008711;28;20088;-69
2023/08/09 05:08:03;;;;;;;9.40;4.65;;;13.50;99.90;;;;;;5009793;28;20797;-70
2023/08/09 05:10:29;;;;;;;12.00;4.50;;;13.50;99.90;;;;;;5009690;28;20598;-69
2023/08/09 05:12:54;;;;;;;12.52;4.68;;;13.60;99.90;;;;;;5026661;28;20524;-70
2023/08/09 05:15:20;;;;;;;12.68;5.35;;;13.60;99.90;;;;;;5026919;28;20030;-71
2023/08/09 05:17:45;;;;;;;9.93;5.10;;;13.60;99.90;;;;;;5025157;28;20042;-72
2023/08/09 05:20:11;;;;;;;14.73;4.85;;;13.70;99.90;;;;;;5013297;28;20064;-69
2023/08/09 05:22:37;;;;;;;14.02;5.63;;;13.80;99.90;;;;;;5027808;28;20030;-70
2023/08/09 05:25:03;;;;;;;12.10;5.20;;;13.80;99.90;;;;;;5011189;28;20041;-72
2023/08/09 05:27:28;;;;;;;13.57;6.30;;;14.00;99.90;;;;;;5030815;28;20041;-69
2023/08/09 05:29:54;;;;;;;9.57;4.38;;;14.00;99.90;;;;;;5011918;28;20034;-69
2023/08/09 05:32:21;;;;;;;11.70;5.90;;;14.10;99.90;;;;;;5013189;28;20045;-71
2023/08/09 05:34:47;;;;;;;12.13;5.25;;;14.20;99.90;;;;;;4996103;28;20064;-69
2023/08/09 05:37:12;;;;;;;12.35;5.82;;;14.20;99.90;;;;;;5028419;28;20038;-70
2023/08/09 05:39:38;;;;;;;11.10;5.60;;;14.30;99.90;;;;;;5010190;28;20032;-69
2023/08/09 05:42:04;;;;;;;11.35;5.95;;;14.40;99.90;;;;;;5030822;28;20389;-71
2023/08/09 05:44:30;;;;;;;11.30;5.28;;;14.50;99.90;;;;;;5030587;28;20049;-71
2023/08/09 05:46:56;;;;;;;10.63;5.72;;;14.60;99.90;;;;;;5024921;28;20055;-70
2023/08/09 05:49:22;;;;;;;11.68;5.65;;;14.60;99.90;;;;;;5012423;28;20089;-70
2023/08/09 05:51:47;;;;;;;13.43;6.30;;;14.70;99.90;;;;;;5029729;28;20042;-69
2023/08/09 05:54:13;;;;;;;10.07;5.15;;;14.70;99.90;;;;;;5030461;28;20337;-69
2023/08/09 05:56:39;;;;;;;12.75;5.15;;;14.70;99.90;;;;;;5011753;28;20064;-71
2023/08/09 05:59:05;;;;;;;10.48;5.88;;;14.70;99.90;;;;;;4998581;28;20037;-69
2023/08/09 06:01:31;;;;;;;10.25;5.72;;;14.70;99.90;;;;;;5007215;28;20029;-69
2023/08/09 06:03:57;;;;;;;9.93;5.28;;;14.80;99.90;;;;;;5010499;28;20512;-72
2023/08/09 06:06:23;;;;;;;11.05;5.60;;;14.80;99.90;;;;;;5011371;28;20045;-71
2023/08/09 06:08:49;;;;;;;11.00;5.40;;;14.80;99.90;;;;;;5010042;28;20064;-71
2023/08/09 06:11:15;;;;;;;10.30;5.50;;;14.80;99.90;;;;;;5021135;28;20389;-70
2023/08/09 06:13:41;;;;;;;12.07;5.88;;;14.70;99.90;;;;;;5010296;28;20107;-71
2023/08/09 06:16:06;;;;;;;13.93;6.47;;;14.80;99.90;;;;;;5011002;28;20572;-70
2023/08/09 06:18:32;;;;;;;9.70;4.75;;;14.90;99.90;;;;;;5010837;28;20029;-70
2023/08/09 06:20:58;;;;;;;12.65;5.80;;;15.00;99.90;;;;;;5027778;28;20037;-72
2023/08/09 06:23:24;;;;;;;10.50;5.22;;;15.00;99.90;;;;;;5001758;28;20068;-72
2023/08/09 06:25:50;;;;;;;12.30;6.03;;;15.10;99.90;;;;;;5008974;28;20061;-70
2023/08/09 06:28:17;;;;;;;9.82;5.65;;;15.10;99.90;;;;;;5009470;28;20504;-70
2023/08/09 06:30:42;;;;;;;10.93;5.60;;;15.20;99.90;;;;;;5007382;28;20033;-72
2023/08/09 06:33:08;;;;;;;12.43;6.22;;;15.30;99.90;;;;;;5009185;28;20473;-72
2023/08/09 06:35:34;;;;;;;10.02;5.90;;;15.50;99.90;;;;;;5004422;28;20048;-72
2023/08/09 06:37:59;;;;;;;12.13;5.57;;;15.70;99.90;;;;;;5028174;28;20025;-71
2023/08/09 06:40:25;;;;;;;12.80;5.30;;;16.00;99.90;;;;;;5028702;28;20026;-71
2023/08/09 06:42:50;;;;;;;10.25;5.13;;;16.30;99.90;;;;;;5009888;28;20038;-72
2023/08/09 06:45:16;;;;;;;6.75;4.15;;;16.70;99.90;;;;;;5028528;28;20025;-73
2023/08/09 06:47:42;;;;;;;8.45;4.43;;;17.30;99.90;;;;;;5009578;28;20508;-70
2023/08/09 06:50:08;;;;;;;6.05;3.17;;;18.00;99.90;;;;;;5028629;28;20508;-71
2023/08/09 06:52:38;;;;;;;4.93;3.03;;;18.90;99.90;;;;;;5027191;28;20114;-72
2023/08/09 06:55:05;;;;;;;6.27;2.97;;;19.50;99.90;;;;;;5020506;28;20069;-72
2023/08/09 06:57:31;;;;;;;6.03;2.63;;;19.90;99.90;;;;;;5026315;28;20670;-71
2023/08/09 06:59:56;;;;;;;4.53;2.28;;;20.60;99.90;;;;;;5024744;28;20053;-71
2023/08/09 07:02:22;;;;;;;5.00;2.42;;;21.40;99.90;;;;;;5028198;28;20111;-73
2023/08/09 07:04:52;;;;;;;5.45;2.45;;;22.10;99.90;;;;;;5014715;28;20383;-71
2023/08/09 07:07:19;;;;;;;4.45;2.83;;;22.90;99.90;;;;;;5010642;28;20048;-71
2023/08/09 07:09:44;;;;;;;4.35;2.70;;;23.70;99.90;;;;;;5009741;28;20029;-71
2023/08/09 07:12:10;;;;;;;4.82;2.67;;;24.10;99.90;;;;;;5027939;28;20029;-72
2023/08/09 07:14:35;;;;;;;4.20;2.67;;;24.90;99.90;;;;;;5009958;28;20065;-73
2023/08/09 07:17:01;;;;;;;4.13;2.67;;;25.40;99.90;;;;;;5028697;28;20077;-73
2023/08/09 07:19:27;;;;;;;3.78;2.10;;;26.00;99.90;;;;;;5028579;28;20046;-72
2023/08/09 07:21:52;;;;;;;6.72;2.08;;;26.50;99.90;;;;;;5028013;28;20045;-73
2023/08/09 07:24:18;;;;;;;6.25;2.40;;;26.90;99.90;;;;;;5019291;28;20033;-71
2023/08/09 07:26:43;;;;;;;3.83;1.95;;;27.10;99.90;;;;;;5027919;28;20036;-71
2023/08/09 07:29:09;;;;;;;3.92;2.42;;;27.30;99.90;;;;;;5028336;28;20393;-73
2023/08/09 07:31:35;;;;;;;3.85;2.33;;;27.00;99.90;;;;;;5027693;28;20497;-72
2023/08/09 07:34:01;;;;;;;5.07;2.63;;;26.70;99.90;;;;;;5005798;28;20065;-71
2023/08/09 07:36:27;;;;;;;5.30;2.65;;;26.50;99.90;;;;;;5008952;28;20132;-73
2023/08/09 07:38:53;;;;;;;5.80;1.95;;;26.00;99.90;;;;;;5016728;28;20239;-72
2023/08/09 07:41:18;;;;;;;5.28;2.15;;;25.40;99.90;;;;;;5020157;28;20640;-72
2023/08/09 07:43:44;;;;;;;5.50;1.80;;;24.80;99.90;;;;;;5018154;28;20398;-71
2023/08/09 07:46:10;;;;;;;3.78;1.73;;;24.20;99.90;;;;;;5005890;28;20029;-71
2023/08/09 07:48:36;;;;;;;5.55;1.73;;;23.40;99.90;;;;;;5014103;28;20508;-73
2023/08/09 07:51:02;;;;;;;2.85;1.50;;;23.10;99.90;;;;;;5021981;28;20029;-70
2023/08/09 07:53:28;;;;;;;2.67;1.77;;;22.80;99.90;;;;;;5008745;28;20045;-70
2023/08/09 07:55:54;;;;;;;2.80;1.63;;;22.30;99.90;;;;;;5000339;28;20389;-70
2023/08/09 07:58:20;;;;;;;2.65;1.00;;;22.00;99.90;;;;;;4996455;28;20041;-71
2023/08/09 08:00:46;;;;;;;4.47;1.38;;;21.90;99.90;;;;;;5008727;28;20119;-71
2023/08/09 08:03:12;;;;;;;2.88;1.02;;;21.80;99.90;;;;;;5001561;28;20029;-72
2023/08/09 08:05:38;;;;;;;3.63;1.17;;;21.50;99.90;;;;;;5014658;28;20038;-72
2023/08/09 08:08:04;;;;;;;3.17;0.90;;;21.20;99.90;;;;;;5002903;28;20389;-73
2023/08/09 08:10:29;;;;;;;1.55;0.80;;;20.90;99.90;;;;;;4999650;28;20034;-73
2023/08/09 08:12:55;;;;;;;2.00;0.85;;;20.80;99.90;;;;;;5015696;28;20045;-73
2023/08/09 08:15:20;;;;;;;2.72;1.35;;;20.70;99.90;;;;;;5005025;28;20040;-70
2023/08/09 08:17:48;;;;;;;2.65;0.80;;;20.60;99.90;;;;;;4997487;28;20511;-71
2023/08/09 08:20:17;;;;;;;4.80;1.40;;;20.30;99.90;;;;;;5021574;28;20034;-69
2023/08/09 08:22:49;;;;;;;2.90;0.90;;;20.10;99.90;;;;;;5019255;28;20034;-71
2023/08/09 08:25:16;;;;;;;2.95;1.10;;;20.00;99.90;;;;;;5003694;28;20461;-71
2023/08/09 08:27:43;;;;;;;2.15;0.95;;;20.00;99.90;;;;;;5000556;28;20030;-72
2023/08/09 08:30:11;;;;;;;2.85;0.85;;;20.10;99.90;;;;;;5023189;28;20037;-72
2023/08/09 08:32:36;;;;;;;1.38;0.65;;;20.10;99.90;;;;;;5001469;28;20035;-71
2023/08/09 08:35:02;;;;;;;0.93;0.60;;;20.20;99.90;;;;;;5000551;28;20521;-72
2023/08/09 08:37:29;;;;;;;4.97;0.80;;;20.50;99.90;;;;;;5001054;28;20111;-72
2023/08/09 08:39:55;;;;;;;1.38;0.57;;;20.60;99.90;;;;;;4998557;28;20096;-72
2023/08/09 08:42:21;;;;;;;2.30;0.63;;;20.70;99.90;;;;;;4998169;28;20458;-71
2023/08/09 08:44:46;;;;;;;1.95;0.73;;;20.60;99.90;;;;;;5003438;28;20038;-71
2023/08/09 08:47:12;;;;;;;2.92;1.00;;;20.50;99.90;;;;;;5003481;28;20034;-72
2023/08/09 08:49:49;;;;;;;1.77;0.77;;;20.20;99.90;;;;;;5017598;28;20040;-72
2023/08/09 08:52:16;;;;;;;1.85;0.65;;;20.00;99.90;;;;;;5002309;28;20042;-71
2023/08/09 08:54:42;;;;;;;2.17;0.63;;;19.90;99.90;;;;;;5000073;28;20393;-71
2023/08/09 08:57:08;;;;;;;4.63;0.68;;;19.80;99.90;;;;;;5024385;28;20037;-70
2023/08/09 08:59:34;;;;;;;1.17;0.60;;;19.70;99.90;;;;;;5020368;28;20396;-74
2023/08/09 09:02:02;;;;;;;2.60;0.95;;;19.80;99.90;;;;;;5016648;28;20041;-71
2023/08/09 09:04:27;;;;;;;1.67;0.65;;;19.70;99.90;;;;;;5016828;28;20046;-71
2023/08/09 09:06:54;;;;;;;1.25;0.60;;;19.70;99.90;;;;;;4992709;28;20117;-71
2023/08/09 09:09:20;;;;;;;1.27;0.70;;;19.70;99.90;;;;;;5000445;28;20049;-70
2023/08/09 09:11:46;;;;;;;0.95;0.47;;;19.80;99.90;;;;;;4998286;28;20036;-71
2023/08/09 09:14:15;;;;;;;1.58;0.50;;;19.90;99.90;;;;;;5000444;28;20124;-71
2023/08/09 09:16:42;;;;;;;1.33;0.82;;;20.20;99.90;;;;;;5016104;28;20141;-71
2023/08/09 09:19:08;;;;;;;2.20;1.27;;;20.40;99.90;;;;;;5003717;28;20488;-71
2023/08/09 09:21:35;;;;;;;0.90;0.60;;;20.70;99.90;;;;;;4995576;28;20025;-73
2023/08/09 09:24:08;;;;;;;2.00;0.50;;;20.80;99.90;;;;;;5013844;28;20606;-72
2023/08/09 09:26:37;;;;;;;1.17;0.57;;;20.70;99.90;;;;;;5014622;28;20037;-71
2023/08/09 09:29:06;;;;;;;2.42;0.70;;;20.70;99.90;;;;;;5018351;28;20029;-70
2023/08/09 09:31:39;;;;;;;1.20;0.50;;;20.70;99.90;;;;;;5018242;28;20044;-73
2023/08/09 09:34:09;;;;;;;1.30;0.52;;;20.80;99.90;;;;;;4994157;28;20444;-71
2023/08/09 09:36:39;;;;;;;2.20;0.45;;;20.80;99.90;;;;;;4995010;28;20060;-71
2023/08/09 09:39:11;;;;;;;0.82;0.30;;;21.00;99.90;;;;;;5000860;28;20494;-70
2023/08/09 09:41:46;;;;;;;1.73;0.68;;;21.10;99.90;;;;;;5007604;28;20030;-70
2023/08/09 09:44:12;;;;;;;4.57;1.17;;;21.10;99.90;;;;;;4994956;28;20481;-70
2023/08/09 09:46:41;;;;;;;1.63;0.60;;;20.80;99.90;;;;;;5007285;28;20136;-71
2023/08/09 09:49:07;;;;;;;1.85;0.50;;;20.60;99.90;;;;;;5009024;28;20448;-70
2023/08/09 09:51:33;;;;;;;1.65;0.60;;;20.40;99.90;;;;;;5007371;28;20093;-72
2023/08/09 09:53:59;;;;;;;2.15;0.80;;;20.30;99.90;;;;;;4993999;28;20041;-72
2023/08/09 09:56:25;;;;;;;1.83;0.60;;;20.10;99.90;;;;;;4996146;28;20383;-72
2023/08/09 09:58:51;;;;;;;3.78;0.60;;;20.10;99.90;;;;;;4988172;28;20524;-71
2023/08/09 10:01:22;;;;;;;1.05;0.55;;;20.30;99.90;;;;;;5009259;28;20038;-71
2023/08/09 10:03:48;;;;;;;1.83;0.60;;;20.50;99.90;;;;;;5005727;28;20444;-72
2023/08/09 10:06:21;;;;;;;3.92;0.60;;;20.70;99.90;;;;;;5013580;28;20038;-73
2023/08/09 10:08:50;;;;;;;4.57;0.57;;;20.90;99.90;;;;;;5013255;28;20038;-70
2023/08/09 10:11:18;;;;;;;3.75;0.63;;;21.10;99.90;;;;;;5015352;28;20037;-71
2023/08/09 10:13:44;;;;;;;3.53;0.55;;;21.40;99.90;;;;;;5012987;28;20044;-70
2023/08/09 10:16:10;;;;;;;2.20;0.57;;;21.50;99.90;;;;;;5018035;28;20038;-71
2023/08/09 10:18:56;;;;;;;2.03;0.50;;;21.60;99.90;;;;;;5014454;28;20032;-71
2023/08/09 10:21:22;;;;;;;1.00;0.50;;;21.40;99.90;;;;;;5013036;28;20025;-71
2023/08/09 10:24:08;;;;;;;2.15;0.20;;;21.20;99.90;;;;;;5015622;28;20048;-71
2023/08/09 10:26:36;;;;;;;1.83;0.50;;;21.20;99.90;;;;;;4990436;28;20038;-74
2023/08/09 10:29:10;;;;;;;3.05;0.40;;;21.30;99.90;;;;;;4995455;28;20512;-71
2023/08/09 10:31:47;;;;;;;2.83;0.68;;;21.40;99.90;;;;;;5013347;28;20041;-71
2023/08/09 10:34:17;;;;;;;1.63;0.20;;;21.70;99.90;;;;;;5017190;28;20042;-70
2023/08/09 10:36:48;;;;;;;4.22;0.50;;;21.80;99.90;;;;;;5012253;28;20505;-70
2023/08/09 10:39:16;;;;;;;0.38;0.10;;;21.90;99.90;;;;;;5012050;28;20088;-73
2023/08/09 10:41:55;;;;;;;3.28;0.35;;;21.90;99.90;;;;;;5000391;28;20075;-70
2023/08/09 10:44:35;;;;;;;1.80;0.40;;;21.90;99.90;;;;;;4997129;28;20604;-70
2023/08/09 10:47:03;;;;;;;;;;;22.10;99.90;;;;;;5000062;28;20126;-71
2023/08/09 10:49:54;;;;;;;1.50;0.57;;;22.10;99.90;;;;;;4997802;28;20361;-72
2023/08/09 10:52:42;;;;;;;2.10;0.30;;;22.30;99.90;;;;;;4996781;28;20037;-71
2023/08/09 10:55:34;;;;;;;2.08;0.70;;;22.40;99.90;;;;;;4992402;28;20083;-72
2023/08/09 10:58:00;;;;;;;0.95;0.10;;;22.40;99.90;;;;;;5007869;28;20075;-70
2023/08/09 11:00:28;;;;;;;2.65;0.20;;;22.40;99.90;;;;;;5011430;28;20038;-71
2023/08/09 11:02:58;;;;;;;2.03;0.30;;;22.40;99.90;;;;;;4996032;28;20034;-71
2023/08/09 11:05:27;;;;;;;2.30;0.75;;;22.20;99.90;;;;;;5016449;28;20038;-70
2023/08/09 11:07:56;;;;;;;1.65;1.00;;;22.00;99.90;;;;;;5015328;28;20834;-71
2023/08/09 11:10:32;;;;;;;4.47;0.50;;;21.80;99.90;;;;;;5011480;28;20041;-70
2023/08/09 11:13:05;;;;;;;6.22;0.30;;;21.60;99.90;;;;;;5016579;28;20096;-70
2023/08/09 11:15:32;;;;;;;2.60;0.50;;;21.50;99.90;;;;;;5004523;28;20037;-72
2023/08/09 11:17:57;;;;;;;1.67;0.35;;;21.40;99.90;;;;;;5015143;28;20118;-72
2023/08/09 11:20:23;;;;;;;0.32;0.17;;;21.40;99.90;;;;;;4998433;28;20489;-71
2023/08/09 11:22:59;;;;;;;1.35;0.10;;;21.40;99.90;;;;;;4999299;28;20037;-70
2023/08/09 11:25:27;;;;;;;5.78;0.43;;;21.40;99.90;;;;;;5000279;28;20037;-73
2023/08/09 11:27:58;;;;;;;1.48;0.40;;;21.30;99.90;;;;;;4996280;28;20045;-71
2023/08/09 11:30:24;;;;;;;;;;;21.40;99.90;;;;;;5013478;28;20405;-70
2023/08/09 11:33:04;;;;;;;2.25;0.50;;;21.50;99.90;;;;;;5017519;28;20009;-70
2023/08/09 11:35:43;;;;;;;4.50;0.30;;;21.70;99.90;;;;;;4996344;28;20119;-71
2023/08/09 11:38:11;;;;;;;3.50;0.20;;;21.80;99.90;;;;;;5015798;28;20038;-71
2023/08/09 11:40:40;;;;;;;4.05;0.30;;;21.90;99.90;;;;;;5017136;28;20056;-71
2023/08/09 11:43:10;;;;;;;1.63;0.22;;;22.00;99.90;;;;;;5002858;28;20066;-72
2023/08/09 11:45:44;;;;;;;2.38;0.22;;;22.10;99.90;;;;;;4995451;28;20041;-71
2023/08/09 11:48:21;;;;;;;2.05;0.30;;;22.10;99.90;;;;;;4993776;28;20103;-70
2023/08/09 11:50:58;;;;;;;3.65;0.25;;;22.10;99.90;;;;;;5007419;28;20046;-70
2023/08/09 11:53:24;;;;;;;3.08;0.55;;;22.00;99.90;;;;;;5021226;28;20111;-71
2023/08/09 11:55:50;;;;;;;1.77;0.55;;;21.90;99.90;;;;;;5020577;28;20084;-69
2023/08/09 11:58:15;;;;;;;1.30;0.30;;;21.90;99.90;;;;;;5019042;28;20493;-71
2023/08/09 12:00:41;;;;;;;1.08;0.35;;;21.90;99.90;;;;;;5019475;28;20089;-70
2023/08/09 12:03:07;;;;;;;4.07;0.30;;;22.00;99.90;;;;;;4999108;28;20042;-70
2023/08/09 12:05:33;;;;;;;1.80;0.30;;;22.00;99.90;;;;;;5019041;28;20037;-71
2023/08/09 12:08:03;;;;;;;3.20;0.93;;;22.00;99.90;;;;;;4994893;28;20038;-70
2023/08/09 12:10:29;;;;;;;0.80;0.20;;;22.10;99.90;;;;;;5013972;28;20167;-70
2023/08/09 12:12:54;;;;;;;1.17;0.32;;;22.10;99.90;;;;;;4996020;28;20120;-71
2023/08/09 12:15:21;;;;;;;1.67;0.20;;;21.80;99.90;;;;;;5012249;28;20497;-70
2023/08/09 12:17:46;;;;;;;0.75;0.20;;;21.80;99.90;;;;;;5000479;28;20115;-70
2023/08/09 12:20:13;;;;;;;1.23;0.28;;;21.80;99.90;;;;;;5018611;28;20847;-70
2023/08/09 12:22:39;;;;;;;3.08;0.35;;;21.90;99.90;;;;;;4997326;28;20169;-71
2023/08/09 12:25:05;;;;;;;4.10;0.82;;;22.00;99.90;;;;;;5005132;28;20127;-71
2023/08/09 12:27:31;;;;;;;0.73;0.30;;;22.10;99.90;;;;;;5001233;28;20103;-72
2023/08/09 12:29:57;;;;;;;0.70;0.35;;;22.20;99.90;;;;;;5008861;28;20049;-71
2023/08/09 12:32:23;;;;;;;1.52;0.15;;;22.20;99.90;;;;;;5004583;28;20042;-71
2023/08/09 12:34:49;;;;;;;3.80;0.50;;;22.20;99.90;;;;;;5007818;28;20060;-71
2023/08/09 12:37:15;;;;;;;3.05;0.70;;;22.10;99.90;;;;;;5026458;28;20132;-71
2023/08/09 12:39:41;;;;;;;2.97;0.50;;;22.10;99.90;;;;;;5025947;28;20504;-71
2023/08/09 12:42:06;;;;;;;1.17;0.30;;;22.00;99.90;;;;;;5026408;28;20120;-71
2023/08/09 12:44:34;;;;;;;2.67;0.75;;;22.00;99.90;;;;;;5008814;28;20060;-71